Time;durP1;ratioP1;P1;durP2;ratioP2;P2;SDS_P1;SDS_P2;PMS_P1;PMS_P2;Temp;Humidity;BMP_temperature;BMP_pressure;BME280_temperature;BME280_humidity;BME280_pressure;Samples;Min_cycle;Max_cycle;Signal;HPM_P1;HPM_P2
2022/06/07 00:00:38;;;;;;;4.90;2.20;;;19.20;95.40;;;;;;4970984;28;20247;-65
2022/06/07 00:03:04;;;;;;;2.13;1.90;;;19.20;95.30;;;;;;4965440;28;20887;-65
2022/06/07 00:05:30;;;;;;;2.33;2.00;;;19.20;95.30;;;;;;4975301;28;20223;-64
2022/06/07 00:07:56;;;;;;;2.00;1.90;;;19.20;95.80;;;;;;4971292;28;20440;-64
2022/06/07 00:10:23;;;;;;;2.07;1.97;;;19.20;95.30;;;;;;4971938;28;20208;-65
2022/06/07 00:12:49;;;;;;;1.95;1.85;;;19.30;94.80;;;;;;4971258;28;20188;-64
2022/06/07 00:15:14;;;;;;;2.90;2.30;;;19.40;94.90;;;;;;4971467;28;20195;-65
2022/06/07 00:17:40;;;;;;;2.90;2.40;;;19.40;95.00;;;;;;4967950;28;20487;-66
2022/06/07 00:20:08;;;;;;;2.17;2.07;;;19.30;95.10;;;;;;4967665;28;20201;-65
2022/06/07 00:22:34;;;;;;;2.58;2.22;;;19.10;95.00;;;;;;4970811;28;20467;-64
2022/06/07 00:25:00;;;;;;;2.00;1.90;;;19.30;95.50;;;;;;4968112;28;20207;-66
2022/06/07 00:27:26;;;;;;;2.20;2.00;;;19.30;95.50;;;;;;4966832;28;20188;-66
2022/06/07 00:29:52;;;;;;;2.30;2.20;;;19.30;95.50;;;;;;4974621;28;20465;-65
2022/06/07 00:32:19;;;;;;;2.03;1.93;;;19.30;95.70;;;;;;4975093;28;20188;-67
2022/06/07 00:34:44;;;;;;;2.45;2.25;;;19.30;96.10;;;;;;4973163;28;20180;-68
2022/06/07 00:37:10;;;;;;;2.73;2.23;;;19.30;95.60;;;;;;4973522;28;20207;-65
2022/06/07 00:39:36;;;;;;;2.37;2.17;;;19.30;95.60;;;;;;4973892;28;20250;-65
2022/06/07 00:42:01;;;;;;;2.33;2.23;;;19.20;96.10;;;;;;4968311;28;20211;-66
2022/06/07 00:44:36;;;;;;;2.57;2.33;;;19.10;96.20;;;;;;4974944;28;20200;-67
2022/06/07 00:47:23;;;;;;;3.25;2.30;;;19.20;96.50;;;;;;4967734;28;20266;-65
2022/06/07 00:50:00;;;;;;;2.22;2.10;;;19.20;96.40;;;;;;4971223;28;20270;-68
2022/06/07 00:52:28;;;;;;;2.20;2.10;;;19.20;96.70;;;;;;4973471;28;20184;-66
2022/06/07 00:54:54;;;;;;;2.13;2.03;;;19.10;96.80;;;;;;4974014;28;20208;-67
2022/06/07 00:57:20;;;;;;;2.13;2.03;;;19.10;96.70;;;;;;4977104;28;20223;-67
2022/06/07 00:59:46;;;;;;;2.17;1.98;;;19.20;96.50;;;;;;4973408;28;20281;-67
2022/06/07 01:02:12;;;;;;;1.70;1.60;;;19.20;96.30;;;;;;4973032;28;20180;-67
2022/06/07 01:04:38;;;;;;;2.30;2.10;;;19.10;96.40;;;;;;4973658;28;20262;-65
2022/06/07 01:12:33;;;;;;;2.30;2.10;;;19.10;97.30;;;;;;4974084;28;20187;-67
2022/06/07 01:14:59;;;;;;;2.33;2.22;;;19.20;97.60;;;;;;4973688;28;20193;-66
2022/06/07 01:17:25;;;;;;;2.07;1.87;;;19.00;98.30;;;;;;4970841;28;20284;-68
2022/06/07 01:19:52;;;;;;;2.10;2.00;;;18.90;97.10;;;;;;4972940;28;20517;-65
2022/06/07 01:22:18;;;;;;;1.80;1.70;;;19.00;97.30;;;;;;4973126;28;20195;-67
2022/06/07 01:24:44;;;;;;;1.85;1.73;;;18.90;96.50;;;;;;4971895;28;20243;-65
2022/06/07 01:27:11;;;;;;;2.25;1.90;;;18.90;96.90;;;;;;4968884;28;20196;-65
2022/06/07 01:29:37;;;;;;;2.00;1.80;;;18.80;97.60;;;;;;4973185;28;20617;-65
2022/06/07 01:32:04;;;;;;;1.92;1.83;;;18.90;98.10;;;;;;4968901;28;20184;-65
2022/06/07 01:34:30;;;;;;;2.65;2.15;;;18.90;99.00;;;;;;4973218;28;20188;-67
2022/06/07 01:36:57;;;;;;;2.30;2.20;;;18.70;99.80;;;;;;4972266;28;20202;-65
2022/06/07 01:42:10;;;;;;;2.15;2.00;;;18.60;98.80;;;;;;4969150;28;20303;-65
2022/06/07 01:44:45;;;;;;;2.33;1.80;;;18.60;98.90;;;;;;4965464;28;20243;-65
2022/06/07 01:47:15;;;;;;;2.85;2.65;;;18.60;99.70;;;;;;4962623;28;20198;-65
2022/06/07 01:49:41;;;;;;;3.55;2.05;;;18.50;99.90;;;;;;4972749;28;20205;-65
2022/06/07 01:52:08;;;;;;;1.85;1.75;;;18.40;99.90;;;;;;4972669;28;20230;-65
2022/06/07 01:54:34;;;;;;;2.13;1.90;;;18.40;99.90;;;;;;4971668;28;20183;-65
2022/06/07 01:56:59;;;;;;;1.83;1.70;;;18.30;99.90;;;;;;4966300;28;20285;-65
2022/06/07 01:59:25;;;;;;;2.60;1.80;;;18.40;99.90;;;;;;4971636;28;20565;-67
2022/06/07 02:01:52;;;;;;;1.70;1.60;;;18.30;99.90;;;;;;4968902;28;20199;-66
2022/06/07 02:04:18;;;;;;;2.10;1.70;;;18.40;99.30;;;;;;4972247;28;20315;-65
2022/06/07 02:06:44;;;;;;;2.42;2.22;;;18.30;99.60;;;;;;4972109;28;20215;-67
2022/06/07 02:09:10;;;;;;;5.27;1.90;;;18.20;99.90;;;;;;4972701;28;20654;-64
2022/06/07 02:11:37;;;;;;;1.80;1.70;;;18.20;99.90;;;;;;4966245;28;20237;-66
2022/06/07 02:14:04;;;;;;;1.70;1.50;;;18.00;99.90;;;;;;4969862;28;20188;-65
2022/06/07 02:16:30;;;;;;;3.03;2.08;;;18.10;99.90;;;;;;4966661;28;20187;-65
2022/06/07 02:18:56;;;;;;;1.60;1.50;;;18.00;99.90;;;;;;4970896;28;20208;-65
2022/06/07 02:21:22;;;;;;;2.40;1.60;;;18.00;99.90;;;;;;4972190;28;20191;-65
2022/06/07 02:23:49;;;;;;;1.80;1.67;;;18.10;99.90;;;;;;4977482;28;20650;-66
2022/06/07 02:26:49;;;;;;;2.97;1.50;;;18.00;99.90;;;;;;4966274;28;20180;-67
2022/06/07 02:29:22;;;;;;;1.70;1.60;;;18.10;99.90;;;;;;4986718;28;20270;-65
2022/06/07 02:31:52;;;;;;;1.67;1.58;;;18.10;99.90;;;;;;4965782;28;20215;-65
2022/06/07 02:34:19;;;;;;;1.65;1.55;;;18.00;99.90;;;;;;4972445;28;20182;-66
2022/06/07 02:36:48;;;;;;;2.25;1.60;;;18.00;99.70;;;;;;4971530;28;20187;-65
2022/06/07 02:39:15;;;;;;;1.58;1.48;;;17.90;99.40;;;;;;4973526;28;20243;-65
2022/06/07 02:41:42;;;;;;;1.70;1.52;;;17.80;99.80;;;;;;4971303;28;20188;-65
2022/06/07 02:44:07;;;;;;;1.63;1.50;;;17.80;99.70;;;;;;4973823;28;20186;-65
2022/06/07 02:46:33;;;;;;;1.40;1.30;;;17.80;99.70;;;;;;4966175;28;20280;-65
2022/06/07 02:48:59;;;;;;;1.50;1.40;;;17.70;99.30;;;;;;4971780;28;20211;-65
2022/06/07 02:51:24;;;;;;;1.97;1.30;;;17.90;99.30;;;;;;4976123;28;20304;-66
2022/06/07 02:53:50;;;;;;;1.37;1.27;;;17.60;99.60;;;;;;4970866;28;20176;-65
2022/06/07 02:56:16;;;;;;;1.60;1.37;;;17.60;99.60;;;;;;4966758;28;20211;-65
2022/06/07 02:58:42;;;;;;;1.53;1.43;;;17.60;99.40;;;;;;4969815;28;20208;-65
2022/06/07 03:01:07;;;;;;;1.80;1.70;;;17.60;99.90;;;;;;4969789;28;20196;-66
2022/06/07 03:03:33;;;;;;;1.50;1.40;;;17.50;99.90;;;;;;4972122;28;20631;-65
2022/06/07 03:05:59;;;;;;;3.20;1.80;;;17.30;99.90;;;;;;4971503;28;20278;-68
2022/06/07 03:08:26;;;;;;;1.63;1.53;;;17.30;99.90;;;;;;4971677;28;20870;-65
2022/06/07 03:10:52;;;;;;;2.80;2.00;;;17.20;99.90;;;;;;4975962;28;20188;-67
2022/06/07 03:13:18;;;;;;;2.93;1.40;;;17.30;99.90;;;;;;4971909;28;20175;-67
2022/06/07 03:15:44;;;;;;;1.25;1.15;;;17.30;99.90;;;;;;4970931;28;20435;-67
2022/06/07 03:18:10;;;;;;;1.83;1.52;;;17.20;99.90;;;;;;4967372;28;20195;-66
2022/06/07 03:20:37;;;;;;;1.57;1.47;;;17.40;99.90;;;;;;4971121;28;20189;-65
2022/06/07 03:23:04;;;;;;;1.77;1.67;;;17.20;99.90;;;;;;4967702;28;20431;-66
2022/06/07 03:25:30;;;;;;;1.63;1.52;;;17.20;99.90;;;;;;4967337;28;20533;-65
2022/06/07 03:27:55;;;;;;;1.70;1.60;;;17.40;99.90;;;;;;4969822;28;20192;-65
2022/06/07 03:30:21;;;;;;;1.90;1.80;;;17.30;99.90;;;;;;4969955;28;20306;-65
2022/06/07 03:32:47;;;;;;;1.93;1.67;;;17.30;99.90;;;;;;4971965;28;20198;-65
2022/06/07 03:35:14;;;;;;;1.57;1.47;;;17.60;99.90;;;;;;4975969;28;20504;-64
2022/06/07 03:37:41;;;;;;;1.77;1.33;;;17.40;99.90;;;;;;4966880;28;20582;-65
2022/06/07 03:40:09;;;;;;;2.80;1.90;;;17.30;99.90;;;;;;4970690;28;20192;-65
2022/06/07 03:42:35;;;;;;;1.80;1.67;;;17.30;99.90;;;;;;4970480;28;20563;-65
2022/06/07 03:45:00;;;;;;;1.50;1.40;;;17.30;99.90;;;;;;4967982;28;20216;-65
2022/06/07 03:47:26;;;;;;;2.00;1.43;;;17.60;99.90;;;;;;4969068;28;20193;-65
2022/06/07 03:49:52;;;;;;;1.37;1.27;;;17.30;99.90;;;;;;4971101;28;20212;-66
2022/06/07 03:52:18;;;;;;;1.37;1.27;;;17.40;99.30;;;;;;4967833;28;20178;-66
2022/06/07 03:54:44;;;;;;;1.65;1.13;;;17.50;98.80;;;;;;4968225;28;20436;-65
2022/06/07 03:57:11;;;;;;;1.30;1.20;;;17.60;98.60;;;;;;4970629;28;20669;-65
2022/06/07 03:59:37;;;;;;;1.40;1.30;;;17.60;98.20;;;;;;4968388;28;20300;-67
2022/06/07 04:02:07;;;;;;;1.48;1.38;;;17.60;98.10;;;;;;4964295;28;20216;-66
2022/06/07 04:04:37;;;;;;;1.45;1.35;;;17.70;98.30;;;;;;4974471;28;20705;-65
2022/06/07 04:09:49;;;;;;;1.60;1.50;;;17.70;99.90;;;;;;4970660;28;20222;-65
2022/06/07 04:12:16;;;;;;;2.30;1.55;;;17.70;99.90;;;;;;4974786;28;20535;-66
2022/06/07 04:14:43;;;;;;;3.40;1.90;;;17.60;99.90;;;;;;4974820;28;20703;-65
2022/06/07 04:17:11;;;;;;;2.13;1.75;;;17.60;99.10;;;;;;4967321;28;20192;-68
2022/06/07 04:19:38;;;;;;;2.60;1.80;;;17.60;99.90;;;;;;4977368;28;20191;-65
2022/06/07 04:22:04;;;;;;;2.10;1.90;;;17.70;99.90;;;;;;4974107;28;20180;-66
2022/06/07 04:24:31;;;;;;;2.05;1.50;;;17.70;99.90;;;;;;4969600;28;20674;-66
2022/06/07 04:26:57;;;;;;;3.20;2.72;;;17.90;99.80;;;;;;4972782;28;20634;-65
2022/06/07 04:29:24;;;;;;;1.60;1.50;;;17.70;99.60;;;;;;4974400;28;20210;-65
2022/06/07 04:31:50;;;;;;;2.28;2.00;;;17.80;99.60;;;;;;4970713;28;20482;-65
2022/06/07 04:34:18;;;;;;;2.40;2.20;;;17.80;99.20;;;;;;4977792;28;20220;-65
2022/06/07 04:36:44;;;;;;;1.77;1.67;;;17.90;99.30;;;;;;4979245;28;20792;-65
2022/06/07 04:39:11;;;;;;;1.33;1.23;;;17.90;98.90;;;;;;4972388;28;20287;-63
2022/06/07 04:41:37;;;;;;;1.67;1.58;;;17.90;98.80;;;;;;4969828;28;20196;-63
2022/06/07 04:44:03;;;;;;;1.80;1.70;;;17.90;98.80;;;;;;4986334;28;20199;-63
2022/06/07 04:46:29;;;;;;;2.47;1.70;;;18.10;99.10;;;;;;4968879;28;20192;-66
2022/06/07 04:48:55;;;;;;;1.93;1.60;;;17.90;99.30;;;;;;4973464;28;20598;-63
2022/06/07 04:51:27;;;;;;;1.80;1.40;;;18.00;99.20;;;;;;4976780;28;20462;-67
2022/06/07 04:53:55;;;;;;;1.27;1.17;;;18.00;99.30;;;;;;4973824;28;20191;-63
2022/06/07 04:56:24;;;;;;;1.30;1.20;;;18.00;99.10;;;;;;4969600;28;20192;-63
2022/06/07 04:58:50;;;;;;;2.00;1.30;;;18.00;98.70;;;;;;4973501;28;20235;-65
2022/06/07 05:01:23;;;;;;;1.80;1.58;;;18.00;98.80;;;;;;4971522;28;20554;-63
2022/06/07 05:03:49;;;;;;;1.77;1.65;;;17.90;98.80;;;;;;4972714;28;20200;-66
2022/06/07 05:06:20;;;;;;;2.13;1.70;;;17.80;99.40;;;;;;4972775;28;20251;-63
2022/06/07 05:08:46;;;;;;;2.20;1.90;;;17.80;99.90;;;;;;4971393;28;20626;-63
2022/06/07 05:11:12;;;;;;;2.67;2.08;;;17.80;99.90;;;;;;4971487;28;20255;-65
2022/06/07 05:13:38;;;;;;;5.15;2.10;;;17.80;99.90;;;;;;4971880;28;20200;-64
2022/06/07 05:16:04;;;;;;;2.27;1.87;;;17.80;99.90;;;;;;4970313;28;20191;-65
2022/06/07 05:18:30;;;;;;;9.93;2.08;;;17.90;99.90;;;;;;4973022;28;20542;-63
2022/06/07 05:20:56;;;;;;;4.90;2.10;;;17.90;99.90;;;;;;4972826;28;20335;-65
2022/06/07 05:23:22;;;;;;;2.00;1.80;;;17.90;99.90;;;;;;4972576;28;20295;-63
2022/06/07 05:25:54;;;;;;;1.60;1.50;;;17.80;99.90;;;;;;4971779;28;20227;-64
2022/06/07 05:28:20;;;;;;;1.70;1.52;;;17.90;99.90;;;;;;4972333;28;20435;-63
2022/06/07 05:30:45;;;;;;;4.73;3.00;;;17.80;99.90;;;;;;4973417;28;20192;-68
2022/06/07 05:33:11;;;;;;;2.37;1.90;;;17.70;99.90;;;;;;4966512;28;20443;-66
2022/06/07 05:35:37;;;;;;;1.90;1.50;;;17.90;99.90;;;;;;4974816;28;20232;-63
2022/06/07 05:38:02;;;;;;;3.13;2.07;;;17.90;99.90;;;;;;4978952;28;20673;-63
2022/06/07 05:40:28;;;;;;;2.07;1.90;;;17.90;99.90;;;;;;4971498;28;20259;-63
2022/06/07 05:42:53;;;;;;;6.97;3.40;;;17.90;99.90;;;;;;4971768;28;20713;-63
2022/06/07 05:45:19;;;;;;;2.00;1.73;;;18.00;99.90;;;;;;4971918;28;20200;-63
2022/06/07 05:47:44;;;;;;;1.73;1.63;;;18.00;99.90;;;;;;4966828;28;20176;-63
2022/06/07 05:50:10;;;;;;;2.57;1.77;;;18.10;99.90;;;;;;4972384;28;20215;-63
2022/06/07 05:52:42;;;;;;;3.37;1.70;;;18.50;99.90;;;;;;4972238;28;20573;-63
2022/06/07 05:55:09;;;;;;;2.28;1.95;;;18.20;99.90;;;;;;4969883;28;20199;-63
2022/06/07 05:57:35;;;;;;;2.10;1.83;;;18.40;99.90;;;;;;4969523;28;20189;-63
2022/06/07 06:00:02;;;;;;;2.50;2.03;;;18.70;99.80;;;;;;4972326;28;20247;-63
2022/06/07 06:02:28;;;;;;;1.80;1.70;;;18.70;99.40;;;;;;4971168;28;20279;-64
2022/06/07 06:04:53;;;;;;;2.20;2.00;;;18.80;99.50;;;;;;4972208;28;20311;-63
2022/06/07 06:07:19;;;;;;;2.30;1.50;;;19.10;99.50;;;;;;4971518;28;20183;-63
2022/06/07 06:12:29;;;;;;;1.80;1.70;;;19.20;98.30;;;;;;4970631;28;20268;-63
2022/06/07 06:14:55;;;;;;;2.30;1.90;;;19.30;98.10;;;;;;4972429;28;20263;-63
2022/06/07 06:17:21;;;;;;;1.88;1.77;;;19.30;98.10;;;;;;4965219;28;20953;-63
2022/06/07 06:19:47;;;;;;;2.30;2.10;;;19.30;98.40;;;;;;4971649;28;20218;-63
2022/06/07 06:22:13;;;;;;;2.13;1.93;;;19.50;97.60;;;;;;4973257;28;20230;-64
2022/06/07 06:24:39;;;;;;;2.13;1.75;;;19.60;97.10;;;;;;4967760;28;20209;-63
2022/06/07 06:27:05;;;;;;;2.15;1.90;;;19.80;97.10;;;;;;4970694;28;20654;-63
2022/06/07 06:29:31;;;;;;;4.60;1.70;;;19.90;96.90;;;;;;4970938;28;20204;-64
2022/06/07 06:31:56;;;;;;;2.57;1.60;;;20.10;96.40;;;;;;4966967;28;20255;-63
2022/06/07 06:34:23;;;;;;;3.23;3.03;;;20.00;96.50;;;;;;4968198;28;20216;-63
2022/06/07 06:36:48;;;;;;;3.30;1.63;;;20.60;96.20;;;;;;4970800;28;20192;-63
2022/06/07 06:39:15;;;;;;;2.37;2.27;;;20.50;95.00;;;;;;4969131;28;20207;-63
2022/06/07 06:41:43;;;;;;;1.35;1.25;;;20.60;95.10;;;;;;4965968;28;20188;-63
2022/06/07 06:44:10;;;;;;;1.25;1.15;;;20.60;94.50;;;;;;4971363;28;20180;-63
2022/06/07 06:46:39;;;;;;;3.63;2.10;;;20.90;94.10;;;;;;4966258;28;20193;-63
2022/06/07 06:49:06;;;;;;;1.45;1.35;;;21.10;93.70;;;;;;4970979;28;20200;-64
2022/06/07 06:51:32;;;;;;;3.92;1.35;;;21.30;93.20;;;;;;4971220;28;20200;-64
2022/06/07 06:53:59;;;;;;;4.80;1.90;;;21.30;93.30;;;;;;4968506;28;20203;-64
2022/06/07 06:56:26;;;;;;;2.47;1.40;;;21.70;92.60;;;;;;4971322;28;20575;-64
2022/06/07 06:58:52;;;;;;;1.98;1.80;;;21.80;91.20;;;;;;4971337;28;20310;-64
2022/06/07 07:01:27;;;;;;;2.20;2.00;;;22.40;91.00;;;;;;4967331;28;20189;-64
2022/06/07 07:03:53;;;;;;;5.20;4.80;;;22.40;90.50;;;;;;4970251;28;20207;-63
2022/06/07 07:06:19;;;;;;;1.47;1.33;;;23.70;90.40;;;;;;4968977;28;20471;-63
2022/06/07 07:08:46;;;;;;;3.80;1.33;;;25.20;85.70;;;;;;4970516;28;20664;-64
2022/06/07 07:11:24;;;;;;;2.80;1.40;;;25.60;81.00;;;;;;4969410;28;20991;-64
2022/06/07 07:13:53;;;;;;;2.87;1.87;;;26.60;77.20;;;;;;4970894;28;20521;-64
2022/06/07 07:16:21;;;;;;;2.70;1.43;;;26.70;75.00;;;;;;4966816;28;20447;-64
2022/06/07 07:18:47;;;;;;;2.70;1.80;;;26.30;73.10;;;;;;4970028;28;20484;-64
2022/06/07 07:21:28;;;;;;;1.60;1.50;;;25.20;75.80;;;;;;4970852;28;20921;-64
2022/06/07 07:23:57;;;;;;;6.50;1.60;;;24.50;77.10;;;;;;4972228;28;20577;-64
2022/06/07 07:26:25;;;;;;;3.07;1.70;;;23.80;79.50;;;;;;4969605;28;20529;-63
2022/06/07 07:28:52;;;;;;;2.43;1.30;;;23.70;80.10;;;;;;4971317;28;20455;-64
2022/06/07 07:31:31;;;;;;;3.57;1.90;;;23.90;80.60;;;;;;4967524;28;20447;-64
2022/06/07 07:33:59;;;;;;;1.87;1.33;;;25.30;78.40;;;;;;4970412;28;20488;-64
2022/06/07 07:36:25;;;;;;;2.73;1.33;;;27.90;73.10;;;;;;4968538;28;20428;-64
2022/06/07 07:38:51;;;;;;;1.20;1.10;;;29.10;65.70;;;;;;4974190;28;20554;-64
2022/06/07 07:41:23;;;;;;;1.20;1.10;;;28.70;65.00;;;;;;4969734;28;20534;-64
2022/06/07 07:43:51;;;;;;;1.33;1.23;;;29.10;63.20;;;;;;4974230;28;20283;-64
2022/06/07 07:46:19;;;;;;;2.07;1.40;;;29.90;61.00;;;;;;4972118;28;20463;-64
2022/06/07 07:48:45;;;;;;;1.50;1.20;;;30.10;59.90;;;;;;4972053;28;20831;-64
2022/06/07 07:51:17;;;;;;;1.97;1.23;;;30.50;56.20;;;;;;4974287;28;20430;-64
2022/06/07 07:53:43;;;;;;;1.30;1.20;;;31.40;54.60;;;;;;4975011;28;20440;-64
2022/06/07 07:56:08;;;;;;;1.60;1.10;;;32.70;53.00;;;;;;4975572;28;20445;-64
2022/06/07 07:58:35;;;;;;;1.93;1.80;;;31.60;51.90;;;;;;4974629;28;20694;-64
2022/06/07 08:01:07;;;;;;;2.23;1.67;;;30.00;53.80;;;;;;4973159;28;20222;-64
2022/06/07 08:03:33;;;;;;;2.90;1.40;;;28.70;57.30;;;;;;4970497;28;20436;-64
2022/06/07 08:05:58;;;;;;;1.97;1.03;;;27.60;57.90;;;;;;4973399;28;21019;-63
2022/06/07 08:08:24;;;;;;;3.23;1.30;;;27.00;58.10;;;;;;4973640;28;20613;-64
2022/06/07 08:10:50;;;;;;;2.27;1.30;;;27.20;59.40;;;;;;4972414;28;20219;-64
2022/06/07 08:13:16;;;;;;;1.33;1.10;;;27.90;57.30;;;;;;4973357;28;20689;-64
2022/06/07 08:15:44;;;;;;;1.30;1.20;;;28.80;56.50;;;;;;4972003;28;20436;-64
2022/06/07 08:18:09;;;;;;;1.37;1.20;;;29.00;55.40;;;;;;4966718;28;20240;-64
2022/06/07 08:20:37;;;;;;;1.90;1.30;;;29.30;54.70;;;;;;4973447;28;20430;-64
2022/06/07 08:23:05;;;;;;;2.80;1.33;;;30.30;53.60;;;;;;4973677;28;20206;-66
2022/06/07 08:25:31;;;;;;;2.60;1.20;;;30.50;51.80;;;;;;4970590;28;20486;-64
2022/06/07 08:27:58;;;;;;;1.00;0.90;;;30.30;50.80;;;;;;4973414;28;20518;-64
2022/06/07 08:30:24;;;;;;;1.40;1.30;;;29.90;53.70;;;;;;4973042;28;20917;-64
2022/06/07 08:32:49;;;;;;;3.23;1.40;;;29.40;53.10;;;;;;4971985;28;20456;-64
2022/06/07 08:38:02;;;;;;;1.33;1.13;;;28.60;52.90;;;;;;4966256;28;20191;-64
2022/06/07 08:40:33;;;;;;;1.67;1.27;;;28.20;53.90;;;;;;4973602;28;20911;-64
2022/06/07 08:43:11;;;;;;;2.10;1.13;;;29.40;53.90;;;;;;4970060;28;20497;-64
2022/06/07 08:45:40;;;;;;;2.37;0.90;;;30.60;51.30;;;;;;4971124;28;20461;-64
2022/06/07 08:48:12;;;;;;;2.90;1.40;;;32.10;48.40;;;;;;4968486;28;20545;-65
2022/06/07 08:50:44;;;;;;;1.67;1.30;;;32.20;47.70;;;;;;4973654;28;20469;-64
2022/06/07 08:53:20;;;;;;;2.30;1.10;;;32.10;48.30;;;;;;4972715;28;20433;-64
2022/06/07 08:55:57;;;;;;;1.60;1.10;;;32.40;48.20;;;;;;4972029;28;20512;-64
2022/06/07 08:58:35;;;;;;;1.10;1.00;;;31.50;48.50;;;;;;4979837;28;20427;-64
2022/06/07 09:01:22;;;;;;;1.93;1.10;;;31.40;49.00;;;;;;4973411;28;20508;-64
2022/06/07 09:04:06;;;;;;;3.97;1.20;;;31.10;48.60;;;;;;4971206;28;20536;-64
2022/06/07 09:06:37;;;;;;;2.77;2.57;;;31.50;47.60;;;;;;4971514;28;20441;-64
2022/06/07 09:09:04;;;;;;;1.40;1.30;;;32.30;47.20;;;;;;4970188;28;20530;-64
2022/06/07 09:14:45;;;;;;;1.27;1.17;;;34.80;43.30;;;;;;4972567;28;20431;-64
2022/06/07 09:17:39;;;;;;;0.93;0.93;;;36.00;40.70;;;;;;4965038;28;20446;-64
2022/06/07 09:20:11;;;;;;;1.93;1.57;;;35.40;40.30;;;;;;4968125;28;20542;-64
2022/06/07 09:22:51;;;;;;;1.50;1.40;;;36.30;39.50;;;;;;4973531;28;20519;-64
2022/06/07 09:25:24;;;;;;;1.17;1.00;;;35.00;40.10;;;;;;4968786;28;20550;-64
2022/06/07 09:27:50;;;;;;;1.30;1.13;;;33.00;42.30;;;;;;4974003;28;20505;-64
2022/06/07 09:30:16;;;;;;;1.40;1.30;;;31.70;43.80;;;;;;4972351;28;20459;-64
2022/06/07 09:32:42;;;;;;;1.33;1.23;;;30.40;46.50;;;;;;4971008;28;20437;-64
2022/06/07 09:35:47;;;;;;;4.10;1.10;;;29.20;48.30;;;;;;4972888;28;20676;-64
2022/06/07 09:38:15;;;;;;;1.50;1.17;;;27.90;50.60;;;;;;4968538;28;20448;-63
2022/06/07 09:40:53;;;;;;;2.10;1.50;;;27.20;52.00;;;;;;4967059;28;20532;-63
2022/06/07 09:43:22;;;;;;;2.43;2.23;;;27.30;51.60;;;;;;4966146;28;20459;-63
2022/06/07 09:45:58;;;;;;;1.20;1.10;;;27.40;52.00;;;;;;4971661;28;20502;-63
2022/06/07 09:48:25;;;;;;;1.23;0.90;;;28.90;50.00;;;;;;4971788;28;20443;-64
2022/06/07 09:51:09;;;;;;;1.10;1.00;;;30.80;47.10;;;;;;4970807;28;20502;-62
2022/06/07 09:53:59;;;;;;;1.57;1.20;;;31.70;45.40;;;;;;4970379;28;20425;-63
2022/06/07 09:56:34;;;;;;;2.63;1.77;;;32.80;43.70;;;;;;4972364;28;20450;-62
2022/06/07 09:59:24;;;;;;;1.50;1.40;;;31.20;44.40;;;;;;4972000;28;20454;-63
2022/06/07 10:02:14;;;;;;;1.30;1.20;;;29.90;47.60;;;;;;4964615;28;20443;-62
2022/06/07 10:04:55;;;;;;;1.47;1.20;;;28.80;47.00;;;;;;4969592;28;20479;-63
2022/06/07 10:07:31;;;;;;;1.23;1.13;;;27.90;49.00;;;;;;4966518;28;20446;-62
2022/06/07 10:10:24;;;;;;;1.50;1.40;;;26.90;50.80;;;;;;4970169;28;20485;-62
2022/06/07 10:13:28;;;;;;;1.40;1.30;;;26.30;53.00;;;;;;4973015;28;20445;-62
2022/06/07 10:15:56;;;;;;;1.67;1.30;;;26.40;53.00;;;;;;4971576;28;20464;-62
2022/06/07 10:18:53;;;;;;;4.70;3.30;;;28.30;50.80;;;;;;4967690;28;20459;-62
2022/06/07 10:21:33;;;;;;;1.20;1.10;;;28.80;48.60;;;;;;4963394;28;20956;-62
2022/06/07 10:24:12;;;;;;;1.07;0.80;;;28.10;47.30;;;;;;4981541;28;20456;-63
2022/06/07 10:26:57;;;;;;;1.20;1.10;;;27.40;48.20;;;;;;4968462;28;20427;-63
2022/06/07 10:30:01;;;;;;;0.87;0.87;;;26.50;49.80;;;;;;4966583;28;20526;-63
2022/06/07 10:32:54;;;;;;;1.50;0.93;;;26.00;51.80;;;;;;4964074;28;20447;-63
2022/06/07 10:35:42;;;;;;;3.27;1.30;;;25.50;53.30;;;;;;4970585;28;20926;-63
2022/06/07 10:38:36;;;;;;;1.30;1.20;;;25.40;55.30;;;;;;4975998;28;20807;-63
2022/06/07 10:41:35;;;;;;;1.50;1.20;;;25.30;56.60;;;;;;4966286;28;20447;-63
2022/06/07 10:44:23;;;;;;;1.57;1.20;;;25.40;56.60;;;;;;4966045;28;20526;-63
2022/06/07 10:46:49;;;;;;;1.40;1.30;;;25.00;57.00;;;;;;4971602;28;20938;-63
2022/06/07 10:49:24;;;;;;;2.17;1.40;;;24.80;57.10;;;;;;4970807;28;20447;-63
2022/06/07 10:52:22;;;;;;;1.87;1.50;;;24.50;57.40;;;;;;4969429;28;20435;-63
2022/06/07 10:55:01;;;;;;;2.23;2.03;;;24.40;57.90;;;;;;4965297;28;20447;-63
2022/06/07 10:57:36;;;;;;;2.07;1.83;;;24.20;58.50;;;;;;4968155;28;20438;-62
2022/06/07 11:00:18;;;;;;;1.40;1.30;;;24.10;59.20;;;;;;4966592;28;20817;-63
2022/06/07 11:03:05;;;;;;;2.60;1.43;;;23.90;60.00;;;;;;4966358;28;20471;-63
2022/06/07 11:11:18;;;;;;;2.03;1.40;;;23.90;61.00;;;;;;4966040;28;20454;-66
2022/06/07 11:14:00;;;;;;;1.30;1.20;;;24.80;59.60;;;;;;4967150;28;20428;-65
2022/06/07 11:16:43;;;;;;;1.40;1.20;;;25.50;58.00;;;;;;4967286;28;20517;-64
2022/06/07 11:19:10;;;;;;;1.33;1.23;;;25.80;57.00;;;;;;4964584;28;20442;-65
2022/06/07 11:21:40;;;;;;;1.37;1.27;;;25.70;56.90;;;;;;4974102;28;20437;-69
2022/06/07 11:24:18;;;;;;;1.40;1.30;;;25.80;56.80;;;;;;4974771;28;20800;-64
2022/06/07 11:26:50;;;;;;;1.17;1.07;;;25.80;56.70;;;;;;4968188;28;20747;-66
2022/06/07 11:29:23;;;;;;;1.40;1.30;;;25.80;56.60;;;;;;4970719;28;20445;-64
2022/06/07 11:31:49;;;;;;;1.57;1.30;;;25.50;56.90;;;;;;4976389;28;20462;-64
2022/06/07 11:34:29;;;;;;;2.43;2.23;;;25.30;58.70;;;;;;4970568;28;20421;-65
2022/06/07 11:37:20;;;;;;;1.90;1.60;;;26.00;58.10;;;;;;4974326;28;20428;-64
2022/06/07 11:39:57;;;;;;;1.63;1.53;;;26.90;57.00;;;;;;4970429;28;20460;-64
2022/06/07 11:42:36;;;;;;;1.83;1.30;;;28.10;54.60;;;;;;4973339;28;20451;-64
2022/06/07 11:45:03;;;;;;;2.47;1.67;;;28.10;53.40;;;;;;4968230;28;20455;-65
2022/06/07 11:47:34;;;;;;;2.20;1.57;;;26.80;55.10;;;;;;4967201;28;20474;-65
2022/06/07 11:50:09;;;;;;;1.20;1.10;;;26.40;56.20;;;;;;4970671;28;20458;-65
2022/06/07 11:52:53;;;;;;;1.43;1.33;;;25.90;57.70;;;;;;4970590;28;20934;-65
2022/06/07 11:55:21;;;;;;;1.20;1.10;;;25.30;58.40;;;;;;4961260;28;20446;-64
2022/06/07 11:57:52;;;;;;;1.30;1.20;;;25.00;59.40;;;;;;4970100;28;20431;-64
2022/06/07 12:00:18;;;;;;;2.17;1.60;;;24.60;60.60;;;;;;4970127;28;20840;-65
2022/06/07 12:03:08;;;;;;;1.60;1.47;;;24.40;63.10;;;;;;4969248;28;20450;-64
2022/06/07 12:05:52;;;;;;;1.30;1.20;;;24.50;62.70;;;;;;4966204;28;20259;-64
2022/06/07 12:08:47;;;;;;;1.73;1.47;;;24.40;63.50;;;;;;4964424;28;20443;-65
2022/06/07 12:11:24;;;;;;;1.47;1.30;;;24.50;64.50;;;;;;4968308;28;20482;-64
2022/06/07 12:14:00;;;;;;;1.70;1.60;;;24.30;63.90;;;;;;4966973;28;20427;-63
2022/06/07 12:16:40;;;;;;;2.30;1.40;;;24.20;65.00;;;;;;4965725;28;20448;-65
2022/06/07 12:19:18;;;;;;;1.50;1.40;;;24.20;65.40;;;;;;4963267;28;20462;-65
2022/06/07 12:21:53;;;;;;;2.23;1.30;;;24.10;65.10;;;;;;4968656;28;20439;-65
2022/06/07 12:24:19;;;;;;;1.40;1.30;;;24.00;65.40;;;;;;4972012;28;20516;-65
2022/06/07 12:26:47;;;;;;;2.17;1.43;;;24.20;65.90;;;;;;4968347;28;20444;-65
2022/06/07 12:29:25;;;;;;;1.47;1.37;;;24.50;65.20;;;;;;4972201;28;20287;-65
2022/06/07 12:31:52;;;;;;;1.90;1.60;;;24.60;64.70;;;;;;4979178;28;20445;-65
2022/06/07 12:34:23;;;;;;;1.30;1.20;;;24.90;64.00;;;;;;4978023;28;20490;-66
2022/06/07 12:37:09;;;;;;;2.80;1.47;;;24.80;63.80;;;;;;4979563;28;20435;-65
2022/06/07 12:39:52;;;;;;;2.93;1.50;;;24.80;64.00;;;;;;4973191;28;20447;-66
2022/06/07 12:42:20;;;;;;;2.10;1.60;;;24.70;65.30;;;;;;4982757;28;20431;-65
2022/06/07 12:44:59;;;;;;;1.40;1.30;;;24.70;64.50;;;;;;4977636;28;20557;-64
2022/06/07 12:47:34;;;;;;;2.17;1.97;;;25.00;63.90;;;;;;4968151;28;20517;-64
2022/06/07 12:50:03;;;;;;;1.80;1.70;;;24.90;64.60;;;;;;4972947;28;20501;-65
2022/06/07 12:52:31;;;;;;;2.00;1.70;;;25.10;64.60;;;;;;4978925;28;20453;-64
2022/06/07 12:55:07;;;;;;;2.60;1.50;;;25.10;63.80;;;;;;4967255;28;20440;-64
2022/06/07 12:57:45;;;;;;;1.30;1.20;;;24.90;64.90;;;;;;4975901;28;20462;-64
2022/06/07 13:00:16;;;;;;;2.03;1.57;;;25.20;65.10;;;;;;4968378;28;20481;-64
2022/06/07 13:02:48;;;;;;;1.83;1.73;;;25.00;64.40;;;;;;4966459;28;20488;-64
2022/06/07 13:05:24;;;;;;;1.87;1.77;;;25.10;65.00;;;;;;4966697;28;20467;-65
2022/06/07 13:07:53;;;;;;;1.87;1.43;;;24.80;64.60;;;;;;4972501;28;20489;-64
2022/06/07 13:10:33;;;;;;;1.47;1.37;;;24.90;64.70;;;;;;4972982;28;20451;-65
2022/06/07 13:13:09;;;;;;;5.70;1.67;;;24.80;65.70;;;;;;4972765;28;20678;-65
2022/06/07 13:15:51;;;;;;;4.93;4.43;;;25.00;68.10;;;;;;4967801;28;20493;-64
2022/06/07 13:18:25;;;;;;;2.53;1.53;;;25.30;66.10;;;;;;4972395;28;20458;-64
2022/06/07 13:21:24;;;;;;;1.50;1.40;;;25.30;64.10;;;;;;4972970;28;20461;-65
2022/06/07 13:23:55;;;;;;;3.20;1.50;;;25.40;63.10;;;;;;4975644;28;20442;-66
2022/06/07 13:26:24;;;;;;;1.37;1.27;;;25.50;62.90;;;;;;4970339;28;20554;-64
2022/06/07 13:29:10;;;;;;;2.13;1.90;;;25.30;63.00;;;;;;4972707;28;20468;-66
2022/06/07 13:31:45;;;;;;;2.23;1.30;;;24.90;63.90;;;;;;4965575;28;20447;-65